You are listening to:
RJAA Departure #2 - Tokyo, Japan

RJAA 121730Z AUTO 35012KT 9999 NCD 12/11 Q1017 TEMPO 4000 BR FEW005 BKN008

If stream doesn't start automatically press the play button
If stream stops then reload player then press play